sensor_id;sensor_type;location;lat;lon;timestamp;P1;durP1;ratioP1;P2;durP2;ratioP2
61806;SDS011;47726;52.766;6.606;2023-05-07T00:00:17;12.73;;;9.75;;
61806;SDS011;47726;52.766;6.606;2023-05-07T00:02:46;13.05;;;9.95;;
61806;SDS011;47726;52.766;6.606;2023-05-07T00:05:12;12.40;;;9.30;;
61806;SDS011;47726;52.766;6.606;2023-05-07T00:07:38;12.15;;;9.32;;
61806;SDS011;47726;52.766;6.606;2023-05-07T00:10:04;13.00;;;9.55;;
61806;SDS011;47726;52.766;6.606;2023-05-07T00:12:31;13.98;;;9.40;;
61806;SDS011;47726;52.766;6.606;2023-05-07T00:14:59;13.45;;;9.32;;
61806;SDS011;47726;52.766;6.606;2023-05-07T00:17:25;12.23;;;9.43;;
61806;SDS011;47726;52.766;6.606;2023-05-07T00:19:51;12.25;;;8.63;;
61806;SDS011;47726;52.766;6.606;2023-05-07T00:22:16;12.93;;;8.45;;
61806;SDS011;47726;52.766;6.606;2023-05-07T00:24:42;11.48;;;8.70;;
61806;SDS011;47726;52.766;6.606;2023-05-07T00:27:08;12.70;;;9.10;;
61806;SDS011;47726;52.766;6.606;2023-05-07T00:29:33;11.90;;;9.20;;
61806;SDS011;47726;52.766;6.606;2023-05-07T00:31:59;14.07;;;10.02;;
61806;SDS011;47726;52.766;6.606;2023-05-07T00:34:24;12.50;;;9.02;;
61806;SDS011;47726;52.766;6.606;2023-05-07T00:36:50;13.20;;;9.35;;
61806;SDS011;47726;52.766;6.606;2023-05-07T00:39:16;14.30;;;10.13;;
61806;SDS011;47726;52.766;6.606;2023-05-07T00:41:41;14.60;;;10.98;;
61806;SDS011;47726;52.766;6.606;2023-05-07T00:44:07;14.02;;;10.15;;
61806;SDS011;47726;52.766;6.606;2023-05-07T00:46:32;12.80;;;10.23;;
61806;SDS011;47726;52.766;6.606;2023-05-07T00:48:58;13.95;;;10.68;;
61806;SDS011;47726;52.766;6.606;2023-05-07T00:51:25;12.88;;;11.07;;
61806;SDS011;47726;52.766;6.606;2023-05-07T00:53:52;15.70;;;11.23;;
61806;SDS011;47726;52.766;6.606;2023-05-07T00:56:18;16.20;;;12.05;;
61806;SDS011;47726;52.766;6.606;2023-05-07T00:58:46;15.15;;;11.27;;
61806;SDS011;47726;52.766;6.606;2023-05-07T01:01:12;15.82;;;12.43;;
61806;SDS011;47726;52.766;6.606;2023-05-07T01:03:38;16.75;;;12.35;;
61806;SDS011;47726;52.766;6.606;2023-05-07T01:06:03;14.90;;;12.07;;
61806;SDS011;47726;52.766;6.606;2023-05-07T01:08:31;15.13;;;12.95;;
61806;SDS011;47726;52.766;6.606;2023-05-07T01:10:57;16.15;;;12.43;;
61806;SDS011;47726;52.766;6.606;2023-05-07T01:13:24;17.38;;;13.68;;
61806;SDS011;47726;52.766;6.606;2023-05-07T01:15:50;16.80;;;13.63;;
61806;SDS011;47726;52.766;6.606;2023-05-07T01:18:15;18.13;;;14.95;;
61806;SDS011;47726;52.766;6.606;2023-05-07T01:20:41;19.30;;;14.73;;
61806;SDS011;47726;52.766;6.606;2023-05-07T01:23:07;19.50;;;15.13;;
61806;SDS011;47726;52.766;6.606;2023-05-07T01:25:35;20.08;;;15.13;;
61806;SDS011;47726;52.766;6.606;2023-05-07T01:28:01;18.90;;;14.43;;
61806;SDS011;47726;52.766;6.606;2023-05-07T01:30:27;19.73;;;15.75;;
61806;SDS011;47726;52.766;6.606;2023-05-07T01:32:58;19.92;;;15.85;;
61806;SDS011;47726;52.766;6.606;2023-05-07T01:35:30;18.80;;;15.68;;
61806;SDS011;47726;52.766;6.606;2023-05-07T01:38:00;22.80;;;16.70;;
61806;SDS011;47726;52.766;6.606;2023-05-07T01:40:29;20.30;;;15.82;;
61806;SDS011;47726;52.766;6.606;2023-05-07T01:42:55;19.08;;;14.85;;
61806;SDS011;47726;52.766;6.606;2023-05-07T01:45:21;20.58;;;16.13;;
61806;SDS011;47726;52.766;6.606;2023-05-07T01:47:46;20.33;;;15.93;;
61806;SDS011;47726;52.766;6.606;2023-05-07T01:50:12;19.33;;;15.75;;
61806;SDS011;47726;52.766;6.606;2023-05-07T01:52:41;19.20;;;16.15;;
61806;SDS011;47726;52.766;6.606;2023-05-07T01:55:06;19.30;;;15.95;;
61806;SDS011;47726;52.766;6.606;2023-05-07T01:57:32;20.17;;;16.55;;
61806;SDS011;47726;52.766;6.606;2023-05-07T01:59:58;21.05;;;15.90;;
61806;SDS011;47726;52.766;6.606;2023-05-07T02:02:23;21.10;;;16.75;;
61806;SDS011;47726;52.766;6.606;2023-05-07T02:04:49;21.52;;;16.70;;
61806;SDS011;47726;52.766;6.606;2023-05-07T02:07:14;21.17;;;16.45;;
61806;SDS011;47726;52.766;6.606;2023-05-07T02:09:40;20.25;;;16.88;;
61806;SDS011;47726;52.766;6.606;2023-05-07T02:12:06;20.73;;;17.15;;
61806;SDS011;47726;52.766;6.606;2023-05-07T02:14:31;21.17;;;16.50;;
61806;SDS011;47726;52.766;6.606;2023-05-07T02:16:57;22.20;;;17.60;;
61806;SDS011;47726;52.766;6.606;2023-05-07T02:19:22;21.30;;;16.98;;
61806;SDS011;47726;52.766;6.606;2023-05-07T02:21:48;22.67;;;17.58;;
61806;SDS011;47726;52.766;6.606;2023-05-07T02:24:13;22.38;;;17.60;;
61806;SDS011;47726;52.766;6.606;2023-05-07T02:26:39;21.75;;;17.95;;
61806;SDS011;47726;52.766;6.606;2023-05-07T02:29:06;23.80;;;18.65;;
61806;SDS011;47726;52.766;6.606;2023-05-07T02:31:32;23.55;;;18.42;;
61806;SDS011;47726;52.766;6.606;2023-05-07T02:33:59;24.92;;;18.95;;
61806;SDS011;47726;52.766;6.606;2023-05-07T02:36:25;24.85;;;19.38;;
61806;SDS011;47726;52.766;6.606;2023-05-07T02:38:51;26.90;;;19.25;;
61806;SDS011;47726;52.766;6.606;2023-05-07T02:41:17;25.58;;;20.15;;
61806;SDS011;47726;52.766;6.606;2023-05-07T02:43:43;25.98;;;18.70;;
61806;SDS011;47726;52.766;6.606;2023-05-07T02:46:08;25.77;;;20.08;;
61806;SDS011;47726;52.766;6.606;2023-05-07T02:48:34;25.23;;;19.98;;
61806;SDS011;47726;52.766;6.606;2023-05-07T02:51:00;26.67;;;20.60;;
61806;SDS011;47726;52.766;6.606;2023-05-07T02:53:28;26.27;;;20.10;;
61806;SDS011;47726;52.766;6.606;2023-05-07T02:55:57;27.50;;;21.00;;
61806;SDS011;47726;52.766;6.606;2023-05-07T02:58:25;27.70;;;19.42;;
61806;SDS011;47726;52.766;6.606;2023-05-07T03:00:51;25.45;;;20.90;;
61806;SDS011;47726;52.766;6.606;2023-05-07T03:03:17;25.85;;;20.92;;
61806;SDS011;47726;52.766;6.606;2023-05-07T03:05:43;26.63;;;20.70;;
61806;SDS011;47726;52.766;6.606;2023-05-07T03:08:09;25.52;;;20.83;;
61806;SDS011;47726;52.766;6.606;2023-05-07T03:10:35;29.58;;;22.73;;
61806;SDS011;47726;52.766;6.606;2023-05-07T03:13:01;31.25;;;22.08;;
61806;SDS011;47726;52.766;6.606;2023-05-07T03:15:27;31.08;;;23.85;;
61806;SDS011;47726;52.766;6.606;2023-05-07T03:17:53;28.10;;;22.67;;
61806;SDS011;47726;52.766;6.606;2023-05-07T03:20:18;30.27;;;22.30;;
61806;SDS011;47726;52.766;6.606;2023-05-07T03:22:44;29.98;;;23.13;;
61806;SDS011;47726;52.766;6.606;2023-05-07T03:25:10;29.52;;;23.40;;
61806;SDS011;47726;52.766;6.606;2023-05-07T03:27:35;30.20;;;23.88;;
61806;SDS011;47726;52.766;6.606;2023-05-07T03:30:01;31.70;;;25.08;;
61806;SDS011;47726;52.766;6.606;2023-05-07T03:32:27;31.15;;;23.98;;
61806;SDS011;47726;52.766;6.606;2023-05-07T03:34:53;32.75;;;25.45;;
61806;SDS011;47726;52.766;6.606;2023-05-07T03:37:18;33.55;;;25.80;;
61806;SDS011;47726;52.766;6.606;2023-05-07T03:39:44;35.47;;;25.63;;
61806;SDS011;47726;52.766;6.606;2023-05-07T03:42:09;32.75;;;25.55;;
61806;SDS011;47726;52.766;6.606;2023-05-07T03:44:35;34.10;;;26.45;;
61806;SDS011;47726;52.766;6.606;2023-05-07T03:47:01;32.78;;;25.20;;
61806;SDS011;47726;52.766;6.606;2023-05-07T03:49:27;34.65;;;25.58;;
61806;SDS011;47726;52.766;6.606;2023-05-07T03:51:53;32.65;;;25.60;;
61806;SDS011;47726;52.766;6.606;2023-05-07T03:54:19;32.70;;;26.63;;
61806;SDS011;47726;52.766;6.606;2023-05-07T03:56:44;33.13;;;26.15;;
61806;SDS011;47726;52.766;6.606;2023-05-07T03:59:10;36.72;;;27.23;;
61806;SDS011;47726;52.766;6.606;2023-05-07T04:01:36;33.67;;;25.88;;
61806;SDS011;47726;52.766;6.606;2023-05-07T04:04:02;33.72;;;26.77;;
61806;SDS011;47726;52.766;6.606;2023-05-07T04:06:29;34.85;;;26.67;;
61806;SDS011;47726;52.766;6.606;2023-05-07T04:08:54;33.72;;;26.67;;
61806;SDS011;47726;52.766;6.606;2023-05-07T04:11:20;37.05;;;27.63;;
61806;SDS011;47726;52.766;6.606;2023-05-07T04:13:46;32.25;;;26.13;;
61806;SDS011;47726;52.766;6.606;2023-05-07T04:16:11;33.92;;;26.05;;
61806;SDS011;47726;52.766;6.606;2023-05-07T04:18:37;31.30;;;25.75;;
61806;SDS011;47726;52.766;6.606;2023-05-07T04:21:02;35.17;;;25.80;;
61806;SDS011;47726;52.766;6.606;2023-05-07T04:23:28;30.20;;;23.98;;
61806;SDS011;47726;52.766;6.606;2023-05-07T04:25:53;32.75;;;24.52;;
61806;SDS011;47726;52.766;6.606;2023-05-07T04:28:19;34.03;;;26.10;;
61806;SDS011;47726;52.766;6.606;2023-05-07T04:30:45;37.10;;;26.45;;
61806;SDS011;47726;52.766;6.606;2023-05-07T04:33:11;34.58;;;26.30;;
61806;SDS011;47726;52.766;6.606;2023-05-07T04:35:36;32.55;;;25.42;;
61806;SDS011;47726;52.766;6.606;2023-05-07T04:38:02;31.58;;;24.45;;
61806;SDS011;47726;52.766;6.606;2023-05-07T04:40:28;31.75;;;23.55;;
61806;SDS011;47726;52.766;6.606;2023-05-07T04:42:54;31.95;;;25.08;;
61806;SDS011;47726;52.766;6.606;2023-05-07T04:45:19;30.80;;;24.92;;
61806;SDS011;47726;52.766;6.606;2023-05-07T04:47:45;31.63;;;25.00;;
61806;SDS011;47726;52.766;6.606;2023-05-07T04:50:10;31.30;;;24.58;;
61806;SDS011;47726;52.766;6.606;2023-05-07T04:52:36;33.83;;;24.33;;
61806;SDS011;47726;52.766;6.606;2023-05-07T04:55:02;31.13;;;24.17;;
61806;SDS011;47726;52.766;6.606;2023-05-07T04:57:28;30.33;;;23.80;;
61806;SDS011;47726;52.766;6.606;2023-05-07T04:59:53;29.23;;;23.23;;
61806;SDS011;47726;52.766;6.606;2023-05-07T05:02:19;27.90;;;23.02;;
61806;SDS011;47726;52.766;6.606;2023-05-07T05:04:45;30.00;;;23.77;;
61806;SDS011;47726;52.766;6.606;2023-05-07T05:07:10;30.05;;;23.25;;
61806;SDS011;47726;52.766;6.606;2023-05-07T05:09:36;28.73;;;23.02;;
61806;SDS011;47726;52.766;6.606;2023-05-07T05:12:01;28.88;;;22.63;;
61806;SDS011;47726;52.766;6.606;2023-05-07T05:14:27;28.20;;;22.33;;
61806;SDS011;47726;52.766;6.606;2023-05-07T05:16:52;28.15;;;22.70;;
61806;SDS011;47726;52.766;6.606;2023-05-07T05:19:18;27.27;;;22.25;;
61806;SDS011;47726;52.766;6.606;2023-05-07T05:21:44;26.50;;;21.48;;
61806;SDS011;47726;52.766;6.606;2023-05-07T05:24:09;26.60;;;21.33;;
61806;SDS011;47726;52.766;6.606;2023-05-07T05:26:35;27.23;;;22.02;;
61806;SDS011;47726;52.766;6.606;2023-05-07T05:29:00;28.23;;;22.73;;
61806;SDS011;47726;52.766;6.606;2023-05-07T05:31:26;28.27;;;22.25;;
61806;SDS011;47726;52.766;6.606;2023-05-07T05:33:51;26.88;;;22.08;;
61806;SDS011;47726;52.766;6.606;2023-05-07T05:36:17;27.63;;;21.48;;
61806;SDS011;47726;52.766;6.606;2023-05-07T05:38:43;26.35;;;21.60;;
61806;SDS011;47726;52.766;6.606;2023-05-07T05:41:09;29.00;;;22.30;;
61806;SDS011;47726;52.766;6.606;2023-05-07T05:43:35;26.85;;;21.48;;
61806;SDS011;47726;52.766;6.606;2023-05-07T05:46:01;28.23;;;21.65;;
61806;SDS011;47726;52.766;6.606;2023-05-07T05:48:27;26.75;;;21.40;;
61806;SDS011;47726;52.766;6.606;2023-05-07T05:50:53;26.83;;;21.60;;
61806;SDS011;47726;52.766;6.606;2023-05-07T05:53:19;26.67;;;21.17;;
61806;SDS011;47726;52.766;6.606;2023-05-07T05:55:45;27.08;;;21.48;;
61806;SDS011;47726;52.766;6.606;2023-05-07T05:58:10;27.73;;;21.85;;
61806;SDS011;47726;52.766;6.606;2023-05-07T06:00:36;28.17;;;21.45;;
61806;SDS011;47726;52.766;6.606;2023-05-07T06:03:02;27.45;;;22.23;;
61806;SDS011;47726;52.766;6.606;2023-05-07T06:05:27;27.65;;;22.20;;
61806;SDS011;47726;52.766;6.606;2023-05-07T06:07:53;27.25;;;21.65;;
61806;SDS011;47726;52.766;6.606;2023-05-07T06:10:18;28.65;;;22.48;;
61806;SDS011;47726;52.766;6.606;2023-05-07T06:12:44;26.92;;;22.33;;
61806;SDS011;47726;52.766;6.606;2023-05-07T06:15:10;29.48;;;23.30;;
61806;SDS011;47726;52.766;6.606;2023-05-07T06:17:35;29.73;;;22.90;;
61806;SDS011;47726;52.766;6.606;2023-05-07T06:20:01;28.67;;;22.48;;
61806;SDS011;47726;52.766;6.606;2023-05-07T06:22:26;30.25;;;23.83;;
61806;SDS011;47726;52.766;6.606;2023-05-07T06:24:52;27.85;;;22.95;;
61806;SDS011;47726;52.766;6.606;2023-05-07T06:27:18;29.38;;;23.42;;
61806;SDS011;47726;52.766;6.606;2023-05-07T06:29:43;29.35;;;23.38;;
61806;SDS011;47726;52.766;6.606;2023-05-07T06:32:09;29.00;;;22.67;;
61806;SDS011;47726;52.766;6.606;2023-05-07T06:34:36;28.42;;;23.05;;
61806;SDS011;47726;52.766;6.606;2023-05-07T06:37:03;28.90;;;23.23;;
61806;SDS011;47726;52.766;6.606;2023-05-07T06:39:28;28.65;;;23.17;;
61806;SDS011;47726;52.766;6.606;2023-05-07T06:41:56;27.85;;;23.00;;
61806;SDS011;47726;52.766;6.606;2023-05-07T06:44:22;32.65;;;24.13;;
61806;SDS011;47726;52.766;6.606;2023-05-07T06:46:48;30.75;;;23.58;;
61806;SDS011;47726;52.766;6.606;2023-05-07T06:49:13;31.02;;;24.05;;
61806;SDS011;47726;52.766;6.606;2023-05-07T06:51:39;30.75;;;24.52;;
61806;SDS011;47726;52.766;6.606;2023-05-07T06:54:05;30.90;;;24.38;;
61806;SDS011;47726;52.766;6.606;2023-05-07T06:56:31;31.17;;;24.85;;
61806;SDS011;47726;52.766;6.606;2023-05-07T06:58:57;29.48;;;24.58;;
61806;SDS011;47726;52.766;6.606;2023-05-07T07:01:22;30.05;;;24.73;;
61806;SDS011;47726;52.766;6.606;2023-05-07T07:03:48;32.35;;;24.83;;
61806;SDS011;47726;52.766;6.606;2023-05-07T07:06:14;32.05;;;24.95;;
61806;SDS011;47726;52.766;6.606;2023-05-07T07:08:39;30.10;;;23.98;;
61806;SDS011;47726;52.766;6.606;2023-05-07T07:11:05;32.72;;;25.63;;
61806;SDS011;47726;52.766;6.606;2023-05-07T07:13:31;31.02;;;24.13;;
61806;SDS011;47726;52.766;6.606;2023-05-07T07:15:57;32.17;;;25.30;;
61806;SDS011;47726;52.766;6.606;2023-05-07T07:18:23;33.70;;;24.38;;
61806;SDS011;47726;52.766;6.606;2023-05-07T07:20:48;30.63;;;24.58;;
61806;SDS011;47726;52.766;6.606;2023-05-07T07:23:14;30.58;;;24.95;;
61806;SDS011;47726;52.766;6.606;2023-05-07T07:25:40;32.10;;;25.17;;
61806;SDS011;47726;52.766;6.606;2023-05-07T07:28:06;29.25;;;23.98;;
61806;SDS011;47726;52.766;6.606;2023-05-07T07:30:31;33.42;;;27.15;;
61806;SDS011;47726;52.766;6.606;2023-05-07T07:32:57;32.00;;;25.67;;
61806;SDS011;47726;52.766;6.606;2023-05-07T07:35:27;32.35;;;25.40;;
61806;SDS011;47726;52.766;6.606;2023-05-07T07:37:59;31.63;;;25.27;;
61806;SDS011;47726;52.766;6.606;2023-05-07T07:40:25;31.83;;;24.48;;
61806;SDS011;47726;52.766;6.606;2023-05-07T07:42:51;36.40;;;26.27;;
61806;SDS011;47726;52.766;6.606;2023-05-07T07:45:17;32.85;;;26.25;;
61806;SDS011;47726;52.766;6.606;2023-05-07T07:47:43;32.10;;;25.85;;
61806;SDS011;47726;52.766;6.606;2023-05-07T07:50:08;33.40;;;25.95;;
61806;SDS011;47726;52.766;6.606;2023-05-07T07:52:34;29.98;;;24.20;;
61806;SDS011;47726;52.766;6.606;2023-05-07T07:55:00;33.15;;;26.00;;
61806;SDS011;47726;52.766;6.606;2023-05-07T07:57:26;30.55;;;24.52;;
61806;SDS011;47726;52.766;6.606;2023-05-07T07:59:52;33.88;;;25.95;;
61806;SDS011;47726;52.766;6.606;2023-05-07T08:02:18;33.63;;;26.75;;
61806;SDS011;47726;52.766;6.606;2023-05-07T08:04:43;31.25;;;24.95;;
61806;SDS011;47726;52.766;6.606;2023-05-07T08:07:09;34.05;;;25.67;;
61806;SDS011;47726;52.766;6.606;2023-05-07T08:09:36;35.60;;;27.10;;
61806;SDS011;47726;52.766;6.606;2023-05-07T08:12:02;32.75;;;26.00;;
61806;SDS011;47726;52.766;6.606;2023-05-07T08:14:28;31.88;;;25.63;;
61806;SDS011;47726;52.766;6.606;2023-05-07T08:16:54;32.15;;;25.40;;
61806;SDS011;47726;52.766;6.606;2023-05-07T08:19:20;32.42;;;26.10;;
61806;SDS011;47726;52.766;6.606;2023-05-07T08:21:46;34.03;;;25.95;;
61806;SDS011;47726;52.766;6.606;2023-05-07T08:24:13;31.17;;;25.25;;
61806;SDS011;47726;52.766;6.606;2023-05-07T08:26:39;32.40;;;26.33;;
61806;SDS011;47726;52.766;6.606;2023-05-07T08:29:05;32.15;;;25.80;;
61806;SDS011;47726;52.766;6.606;2023-05-07T08:31:30;31.42;;;25.67;;
61806;SDS011;47726;52.766;6.606;2023-05-07T08:33:57;30.80;;;25.55;;
61806;SDS011;47726;52.766;6.606;2023-05-07T08:36:23;33.03;;;25.92;;
61806;SDS011;47726;52.766;6.606;2023-05-07T08:38:49;30.60;;;25.02;;
61806;SDS011;47726;52.766;6.606;2023-05-07T08:41:15;35.13;;;26.27;;
61806;SDS011;47726;52.766;6.606;2023-05-07T08:43:41;32.13;;;25.60;;
61806;SDS011;47726;52.766;6.606;2023-05-07T08:46:09;30.25;;;24.95;;
61806;SDS011;47726;52.766;6.606;2023-05-07T08:48:37;31.90;;;25.30;;
61806;SDS011;47726;52.766;6.606;2023-05-07T08:51:03;31.63;;;24.75;;
61806;SDS011;47726;52.766;6.606;2023-05-07T08:53:28;31.92;;;25.58;;
61806;SDS011;47726;52.766;6.606;2023-05-07T08:55:54;31.85;;;24.77;;
61806;SDS011;47726;52.766;6.606;2023-05-07T08:58:20;29.52;;;24.65;;
61806;SDS011;47726;52.766;6.606;2023-05-07T09:00:46;30.85;;;25.27;;
61806;SDS011;47726;52.766;6.606;2023-05-07T09:03:12;31.55;;;24.13;;
61806;SDS011;47726;52.766;6.606;2023-05-07T09:05:39;31.30;;;24.85;;
61806;SDS011;47726;52.766;6.606;2023-05-07T09:08:05;31.45;;;25.20;;
61806;SDS011;47726;52.766;6.606;2023-05-07T09:10:33;29.98;;;24.67;;
61806;SDS011;47726;52.766;6.606;2023-05-07T09:12:59;28.67;;;24.02;;
61806;SDS011;47726;52.766;6.606;2023-05-07T09:15:25;28.42;;;22.63;;
61806;SDS011;47726;52.766;6.606;2023-05-07T09:17:51;30.17;;;23.38;;
61806;SDS011;47726;52.766;6.606;2023-05-07T09:20:17;28.08;;;23.35;;
61806;SDS011;47726;52.766;6.606;2023-05-07T09:22:43;28.85;;;23.08;;
61806;SDS011;47726;52.766;6.606;2023-05-07T09:25:09;29.98;;;23.63;;
61806;SDS011;47726;52.766;6.606;2023-05-07T09:27:35;27.65;;;22.67;;
61806;SDS011;47726;52.766;6.606;2023-05-07T09:30:04;26.70;;;22.30;;
61806;SDS011;47726;52.766;6.606;2023-05-07T09:32:36;26.55;;;22.35;;
61806;SDS011;47726;52.766;6.606;2023-05-07T09:35:05;27.15;;;21.85;;
61806;SDS011;47726;52.766;6.606;2023-05-07T09:37:31;27.52;;;22.73;;
61806;SDS011;47726;52.766;6.606;2023-05-07T09:39:57;25.40;;;21.85;;
61806;SDS011;47726;52.766;6.606;2023-05-07T09:42:23;26.77;;;22.02;;
61806;SDS011;47726;52.766;6.606;2023-05-07T09:44:50;26.13;;;22.15;;
61806;SDS011;47726;52.766;6.606;2023-05-07T09:47:18;27.02;;;21.83;;
61806;SDS011;47726;52.766;6.606;2023-05-07T09:49:46;24.63;;;20.58;;
61806;SDS011;47726;52.766;6.606;2023-05-07T09:52:13;24.80;;;20.98;;
61806;SDS011;47726;52.766;6.606;2023-05-07T09:54:39;24.38;;;21.08;;
61806;SDS011;47726;52.766;6.606;2023-05-07T09:57:07;23.95;;;20.20;;
61806;SDS011;47726;52.766;6.606;2023-05-07T09:59:36;24.42;;;20.55;;
61806;SDS011;47726;52.766;6.606;2023-05-07T10:02:03;25.55;;;20.17;;
61806;SDS011;47726;52.766;6.606;2023-05-07T10:04:30;21.63;;;19.17;;
61806;SDS011;47726;52.766;6.606;2023-05-07T10:06:56;28.25;;;20.23;;
61806;SDS011;47726;52.766;6.606;2023-05-07T10:09:23;23.00;;;20.02;;
61806;SDS011;47726;52.766;6.606;2023-05-07T10:11:50;24.45;;;20.30;;
61806;SDS011;47726;52.766;6.606;2023-05-07T10:14:16;22.33;;;19.15;;
61806;SDS011;47726;52.766;6.606;2023-05-07T10:16:42;22.05;;;19.38;;
61806;SDS011;47726;52.766;6.606;2023-05-07T10:19:08;23.92;;;20.08;;
61806;SDS011;47726;52.766;6.606;2023-05-07T10:21:39;23.13;;;19.38;;
61806;SDS011;47726;52.766;6.606;2023-05-07T10:24:10;24.75;;;18.83;;
61806;SDS011;47726;52.766;6.606;2023-05-07T10:26:45;21.00;;;18.25;;
61806;SDS011;47726;52.766;6.606;2023-05-07T10:29:16;20.80;;;17.92;;
61806;SDS011;47726;52.766;6.606;2023-05-07T10:31:52;19.75;;;17.50;;
61806;SDS011;47726;52.766;6.606;2023-05-07T10:34:44;23.02;;;18.05;;
61806;SDS011;47726;52.766;6.606;2023-05-07T10:37:10;25.98;;;18.80;;
61806;SDS011;47726;52.766;6.606;2023-05-07T10:39:37;23.08;;;18.13;;
61806;SDS011;47726;52.766;6.606;2023-05-07T10:42:09;19.40;;;17.35;;
61806;SDS011;47726;52.766;6.606;2023-05-07T10:44:35;22.98;;;17.85;;
61806;SDS011;47726;52.766;6.606;2023-05-07T10:47:15;20.63;;;17.88;;
61806;SDS011;47726;52.766;6.606;2023-05-07T10:52:19;18.65;;;16.65;;
61806;SDS011;47726;52.766;6.606;2023-05-07T10:55:19;20.88;;;17.85;;
61806;SDS011;47726;52.766;6.606;2023-05-07T10:57:46;19.73;;;17.10;;
61806;SDS011;47726;52.766;6.606;2023-05-07T11:05:31;18.45;;;16.27;;
61806;SDS011;47726;52.766;6.606;2023-05-07T11:07:59;19.08;;;16.20;;
61806;SDS011;47726;52.766;6.606;2023-05-07T11:10:47;22.48;;;16.48;;
61806;SDS011;47726;52.766;6.606;2023-05-07T11:16:22;20.75;;;17.05;;
61806;SDS011;47726;52.766;6.606;2023-05-07T11:18:53;22.08;;;17.23;;
61806;SDS011;47726;52.766;6.606;2023-05-07T11:23:58;18.70;;;15.73;;
61806;SDS011;47726;52.766;6.606;2023-05-07T11:26:24;19.17;;;15.95;;
61806;SDS011;47726;52.766;6.606;2023-05-07T11:28:50;20.17;;;17.00;;
61806;SDS011;47726;52.766;6.606;2023-05-07T11:31:20;18.80;;;16.80;;
61806;SDS011;47726;52.766;6.606;2023-05-07T11:33:48;18.67;;;16.00;;
61806;SDS011;47726;52.766;6.606;2023-05-07T11:36:14;18.38;;;16.40;;
61806;SDS011;47726;52.766;6.606;2023-05-07T11:38:40;18.35;;;16.42;;
61806;SDS011;47726;52.766;6.606;2023-05-07T11:41:06;19.25;;;16.80;;
61806;SDS011;47726;52.766;6.606;2023-05-07T11:43:33;18.38;;;16.42;;
61806;SDS011;47726;52.766;6.606;2023-05-07T11:46:10;17.67;;;15.77;;
61806;SDS011;47726;52.766;6.606;2023-05-07T11:48:36;18.88;;;16.17;;
61806;SDS011;47726;52.766;6.606;2023-05-07T11:51:06;18.27;;;15.75;;
61806;SDS011;47726;52.766;6.606;2023-05-07T11:53:37;17.63;;;15.80;;
61806;SDS011;47726;52.766;6.606;2023-05-07T11:56:11;18.48;;;15.98;;
61806;SDS011;47726;52.766;6.606;2023-05-07T11:58:39;17.55;;;15.63;;
61806;SDS011;47726;52.766;6.606;2023-05-07T12:01:07;18.63;;;15.75;;
61806;SDS011;47726;52.766;6.606;2023-05-07T12:03:34;17.30;;;15.02;;
61806;SDS011;47726;52.766;6.606;2023-05-07T12:06:13;17.55;;;14.88;;
61806;SDS011;47726;52.766;6.606;2023-05-07T12:08:40;18.15;;;16.25;;
61806;SDS011;47726;52.766;6.606;2023-05-07T12:11:07;20.30;;;17.08;;
61806;SDS011;47726;52.766;6.606;2023-05-07T12:13:39;18.40;;;15.73;;
61806;SDS011;47726;52.766;6.606;2023-05-07T12:16:06;18.48;;;15.80;;
61806;SDS011;47726;52.766;6.606;2023-05-07T12:18:33;17.23;;;15.32;;
61806;SDS011;47726;52.766;6.606;2023-05-07T12:21:00;18.00;;;15.50;;
61806;SDS011;47726;52.766;6.606;2023-05-07T12:23:26;18.00;;;15.20;;
61806;SDS011;47726;52.766;6.606;2023-05-07T12:25:52;17.70;;;15.38;;
61806;SDS011;47726;52.766;6.606;2023-05-07T12:28:18;17.67;;;15.55;;
61806;SDS011;47726;52.766;6.606;2023-05-07T12:30:44;16.98;;;15.05;;
61806;SDS011;47726;52.766;6.606;2023-05-07T12:33:14;17.88;;;15.95;;
61806;SDS011;47726;52.766;6.606;2023-05-07T12:35:42;16.77;;;14.98;;
61806;SDS011;47726;52.766;6.606;2023-05-07T12:38:08;18.33;;;16.30;;
61806;SDS011;47726;52.766;6.606;2023-05-07T12:40:36;17.70;;;15.80;;
61806;SDS011;47726;52.766;6.606;2023-05-07T12:43:19;17.85;;;15.52;;
61806;SDS011;47726;52.766;6.606;2023-05-07T12:45:55;17.80;;;15.90;;
61806;SDS011;47726;52.766;6.606;2023-05-07T12:48:22;16.25;;;14.48;;
61806;SDS011;47726;52.766;6.606;2023-05-07T12:50:49;16.90;;;15.10;;
61806;SDS011;47726;52.766;6.606;2023-05-07T12:53:19;17.65;;;15.50;;
61806;SDS011;47726;52.766;6.606;2023-05-07T12:55:50;16.40;;;14.40;;
61806;SDS011;47726;52.766;6.606;2023-05-07T13:00:49;17.80;;;14.95;;
61806;SDS011;47726;52.766;6.606;2023-05-07T13:03:23;17.83;;;15.00;;
61806;SDS011;47726;52.766;6.606;2023-05-07T13:05:54;17.30;;;15.15;;
61806;SDS011;47726;52.766;6.606;2023-05-07T13:08:27;19.60;;;16.58;;
61806;SDS011;47726;52.766;6.606;2023-05-07T13:10:57;16.98;;;14.57;;
61806;SDS011;47726;52.766;6.606;2023-05-07T13:13:24;16.67;;;14.93;;
61806;SDS011;47726;52.766;6.606;2023-05-07T13:15:50;17.48;;;15.52;;
61806;SDS011;47726;52.766;6.606;2023-05-07T13:18:16;17.45;;;15.15;;
61806;SDS011;47726;52.766;6.606;2023-05-07T13:20:42;17.23;;;15.43;;
61806;SDS011;47726;52.766;6.606;2023-05-07T13:23:08;16.25;;;14.00;;
61806;SDS011;47726;52.766;6.606;2023-05-07T13:25:33;16.67;;;14.80;;
61806;SDS011;47726;52.766;6.606;2023-05-07T13:27:59;17.13;;;14.88;;
61806;SDS011;47726;52.766;6.606;2023-05-07T13:30:25;16.67;;;14.93;;
61806;SDS011;47726;52.766;6.606;2023-05-07T13:32:51;17.38;;;14.88;;
61806;SDS011;47726;52.766;6.606;2023-05-07T13:35:18;16.70;;;14.15;;
61806;SDS011;47726;52.766;6.606;2023-05-07T13:37:44;17.20;;;14.70;;
61806;SDS011;47726;52.766;6.606;2023-05-07T13:40:09;17.25;;;14.60;;
61806;SDS011;47726;52.766;6.606;2023-05-07T13:42:35;15.95;;;13.98;;
61806;SDS011;47726;52.766;6.606;2023-05-07T13:45:01;15.93;;;14.27;;
61806;SDS011;47726;52.766;6.606;2023-05-07T13:47:30;17.40;;;14.65;;
61806;SDS011;47726;52.766;6.606;2023-05-07T13:49:56;17.42;;;15.55;;
61806;SDS011;47726;52.766;6.606;2023-05-07T13:52:21;16.65;;;14.85;;
61806;SDS011;47726;52.766;6.606;2023-05-07T13:54:47;15.77;;;14.18;;
61806;SDS011;47726;52.766;6.606;2023-05-07T13:57:12;15.90;;;14.15;;
61806;SDS011;47726;52.766;6.606;2023-05-07T13:59:38;14.85;;;13.32;;
61806;SDS011;47726;52.766;6.606;2023-05-07T14:02:03;16.73;;;13.73;;
61806;SDS011;47726;52.766;6.606;2023-05-07T14:04:30;15.18;;;13.57;;
61806;SDS011;47726;52.766;6.606;2023-05-07T14:06:55;16.00;;;14.25;;
61806;SDS011;47726;52.766;6.606;2023-05-07T14:09:21;15.48;;;13.75;;
61806;SDS011;47726;52.766;6.606;2023-05-07T14:11:46;16.50;;;14.05;;
61806;SDS011;47726;52.766;6.606;2023-05-07T14:14:16;16.00;;;14.30;;
61806;SDS011;47726;52.766;6.606;2023-05-07T14:16:42;15.43;;;13.80;;
61806;SDS011;47726;52.766;6.606;2023-05-07T14:19:07;16.15;;;14.07;;
61806;SDS011;47726;52.766;6.606;2023-05-07T14:21:33;15.75;;;13.75;;
61806;SDS011;47726;52.766;6.606;2023-05-07T14:23:59;14.20;;;12.32;;
61806;SDS011;47726;52.766;6.606;2023-05-07T14:26:25;14.57;;;13.07;;
61806;SDS011;47726;52.766;6.606;2023-05-07T14:28:52;14.50;;;12.98;;
61806;SDS011;47726;52.766;6.606;2023-05-07T14:31:19;16.35;;;13.27;;
61806;SDS011;47726;52.766;6.606;2023-05-07T14:33:46;14.93;;;12.73;;